Time;durP1;ratioP1;P1;durP2;ratioP2;P2;SDS_P1;SDS_P2;PMS_P1;PMS_P2;Temp;Humidity;BMP_temperature;BMP_pressure;BME280_temperature;BME280_humidity;BME280_pressure;Samples;Min_cycle;Max_cycle;Signal;HPM_P1;HPM_P2
2021/01/28 00:00:24;;;;;;;12.18;2.90;;;5.70;99.90;;;;;;5084591;28;20040;-70
2021/01/28 00:02:50;;;;;;;14.57;3.80;;;5.70;99.90;;;;;;5077987;28;20032;-71
2021/01/28 00:05:17;;;;;;;14.60;3.17;;;5.60;99.90;;;;;;5085090;28;20452;-70
2021/01/28 00:07:43;;;;;;;11.52;3.42;;;5.50;99.90;;;;;;5083251;28;20044;-71
2021/01/28 00:10:09;;;;;;;14.32;3.47;;;5.50;99.90;;;;;;5084142;28;20031;-71
2021/01/28 00:12:35;;;;;;;9.32;3.40;;;5.50;99.90;;;;;;5083296;28;20044;-70
2021/01/28 00:15:02;;;;;;;20.10;3.58;;;5.40;99.90;;;;;;5084447;28;20044;-71
2021/01/28 00:17:28;;;;;;;9.73;3.75;;;5.40;99.90;;;;;;5083746;28;20044;-71
2021/01/28 00:19:53;;;;;;;17.63;4.30;;;5.40;99.90;;;;;;5083831;28;20048;-71
2021/01/28 00:22:19;;;;;;;8.93;3.35;;;5.30;99.90;;;;;;5083072;28;20047;-71
2021/01/28 00:24:45;;;;;;;16.90;3.95;;;5.30;99.90;;;;;;5081367;28;20131;-71
2021/01/28 00:27:10;;;;;;;13.45;4.00;;;5.30;99.90;;;;;;5064128;28;20251;-71
2021/01/28 00:29:36;;;;;;;13.85;3.78;;;5.30;99.90;;;;;;5083226;28;20040;-70
2021/01/28 00:32:02;;;;;;;14.95;4.57;;;5.30;99.90;;;;;;5084443;28;20044;-71
2021/01/28 00:34:28;;;;;;;14.73;4.63;;;5.30;99.90;;;;;;5083384;28;20048;-71
2021/01/28 00:36:53;;;;;;;14.43;5.07;;;5.20;99.90;;;;;;5081378;28;20239;-70
2021/01/28 00:39:19;;;;;;;16.35;4.57;;;5.30;99.90;;;;;;5083075;28;20040;-71
2021/01/28 00:41:45;;;;;;;18.55;4.55;;;5.30;99.90;;;;;;5083555;28;20052;-70
2021/01/28 00:44:11;;;;;;;12.07;4.47;;;5.30;99.90;;;;;;5083528;28;20046;-70
2021/01/28 00:46:36;;;;;;;17.35;6.10;;;5.20;99.90;;;;;;5078696;28;20048;-70
2021/01/28 00:49:02;;;;;;;17.90;4.07;;;5.20;99.90;;;;;;5083175;28;20083;-71
2021/01/28 00:51:28;;;;;;;14.77;4.47;;;5.20;99.90;;;;;;5065801;28;20139;-69
2021/01/28 00:53:53;;;;;;;19.20;4.20;;;5.20;99.90;;;;;;5076921;28;20044;-71
2021/01/28 00:56:19;;;;;;;12.18;4.72;;;5.30;99.90;;;;;;5083095;28;20064;-70
2021/01/28 00:58:47;;;;;;;11.32;5.10;;;5.20;99.90;;;;;;5082934;28;20056;-72
2021/01/28 01:01:13;;;;;;;20.10;5.25;;;5.20;99.90;;;;;;5069220;28;20048;-71
2021/01/28 01:03:39;;;;;;;17.90;5.60;;;5.20;99.90;;;;;;5074210;28;20055;-71
2021/01/28 01:06:04;;;;;;;12.48;4.57;;;5.20;99.90;;;;;;5083196;28;20086;-71
2021/01/28 01:08:32;;;;;;;15.32;5.95;;;5.20;99.90;;;;;;5082062;28;20075;-71
2021/01/28 01:11:06;;;;;;;17.08;4.55;;;5.20;99.90;;;;;;5080411;28;20044;-71
2021/01/28 01:13:34;;;;;;;22.73;6.43;;;5.20;99.90;;;;;;5077530;28;20468;-71
2021/01/28 01:16:01;;;;;;;19.75;4.40;;;5.20;99.90;;;;;;5063934;28;20428;-71
2021/01/28 01:18:31;;;;;;;18.48;6.50;;;5.30;99.90;;;;;;5074347;28;20044;-70
2021/01/28 01:20:59;;;;;;;10.85;4.82;;;5.20;99.90;;;;;;5083395;28;20044;-71
2021/01/28 01:23:25;;;;;;;14.55;4.97;;;5.30;99.90;;;;;;5078002;28;20063;-70
2021/01/28 01:25:51;;;;;;;11.88;4.93;;;5.30;99.90;;;;;;5062847;28;20044;-70
2021/01/28 01:28:17;;;;;;;12.57;5.25;;;5.30;99.90;;;;;;5072996;28;20557;-70
2021/01/28 01:30:43;;;;;;;15.23;5.85;;;5.30;99.90;;;;;;5083131;28;20044;-69
2021/01/28 01:33:09;;;;;;;19.15;4.75;;;5.30;99.90;;;;;;5079348;28;20110;-70
2021/01/28 01:35:35;;;;;;;18.60;5.75;;;5.30;99.90;;;;;;5061834;28;20052;-70
2021/01/28 01:38:02;;;;;;;18.10;5.53;;;5.20;99.90;;;;;;5072754;28;20281;-70
2021/01/28 01:40:45;;;;;;;9.23;4.65;;;5.20;99.90;;;;;;5082980;28;20040;-70
2021/01/28 01:43:12;;;;;;;12.90;4.35;;;5.20;99.90;;;;;;5081326;28;20040;-70
2021/01/28 01:45:44;;;;;;;18.70;4.95;;;5.20;99.90;;;;;;5082623;28;20058;-70
2021/01/28 01:48:22;;;;;;;20.08;5.20;;;5.20;99.90;;;;;;5081935;28;20036;-70
2021/01/28 01:50:56;;;;;;;12.63;5.47;;;5.20;99.90;;;;;;5082517;28;20420;-70
2021/01/28 01:53:28;;;;;;;15.30;5.30;;;5.20;99.90;;;;;;5081515;28;20047;-70
2021/01/28 01:55:58;;;;;;;13.95;5.97;;;5.30;99.90;;;;;;5082346;28;20051;-70
2021/01/28 01:58:36;;;;;;;16.60;6.25;;;5.30;99.90;;;;;;5081495;28;20093;-70
2021/01/28 02:01:03;;;;;;;18.38;5.28;;;5.20;99.90;;;;;;5082020;28;20040;-71
2021/01/28 02:03:32;;;;;;;13.10;5.20;;;5.20;99.90;;;;;;5068192;28;20131;-70
2021/01/28 02:06:30;;;;;;;9.93;4.85;;;5.20;99.90;;;;;;5062437;28;20048;-70
2021/01/28 02:08:57;;;;;;;9.43;5.20;;;5.20;99.90;;;;;;5081669;28;20048;-70
2021/01/28 02:11:27;;;;;;;11.18;4.65;;;5.20;99.90;;;;;;5082974;28;20063;-70
2021/01/28 02:13:56;;;;;;;18.17;5.20;;;5.30;99.90;;;;;;5082149;28;20059;-70
2021/01/28 02:16:26;;;;;;;16.73;5.20;;;5.20;99.90;;;;;;5082042;28;20048;-70
2021/01/28 02:18:55;;;;;;;13.40;5.68;;;5.20;99.90;;;;;;5082317;28;20051;-70
2021/01/28 02:21:26;;;;;;;12.43;5.97;;;5.10;99.90;;;;;;5081481;28;20032;-70
2021/01/28 02:24:12;;;;;;;16.23;6.32;;;5.10;99.90;;;;;;5082195;28;20039;-70
2021/01/28 02:26:42;;;;;;;15.90;6.22;;;5.10;99.90;;;;;;5080484;28;20428;-70
2021/01/28 02:29:08;;;;;;;21.30;7.43;;;5.10;99.90;;;;;;5082391;28;20040;-70
2021/01/28 02:31:34;;;;;;;15.50;6.75;;;5.00;99.90;;;;;;5081848;28;20162;-70
2021/01/28 02:34:00;;;;;;;17.50;6.05;;;5.00;99.90;;;;;;5082058;28;20140;-71
2021/01/28 02:36:31;;;;;;;11.48;6.22;;;5.10;99.90;;;;;;5081312;28;20495;-71
2021/01/28 02:38:57;;;;;;;17.73;6.93;;;5.10;99.90;;;;;;5081649;28;20048;-71
2021/01/28 02:41:24;;;;;;;25.15;8.50;;;5.00;99.90;;;;;;5081259;28;20272;-71
2021/01/28 02:43:52;;;;;;;18.80;7.55;;;4.90;99.90;;;;;;5082661;28;20043;-73
2021/01/28 02:46:18;;;;;;;22.70;8.13;;;5.00;99.90;;;;;;5081057;28;20291;-71
2021/01/28 02:48:47;;;;;;;19.70;8.52;;;4.90;99.90;;;;;;5081649;28;21799;-71
2021/01/28 02:51:12;;;;;;;11.52;6.07;;;4.90;99.90;;;;;;5073369;28;20095;-71
2021/01/28 02:53:47;;;;;;;18.75;6.60;;;4.90;99.90;;;;;;5080765;28;20511;-71
2021/01/28 02:56:13;;;;;;;8.85;5.68;;;4.90;99.90;;;;;;5082016;28;20519;-71
2021/01/28 02:58:39;;;;;;;15.18;6.80;;;4.90;99.90;;;;;;5081238;28;20056;-70
2021/01/28 03:01:06;;;;;;;14.27;6.38;;;5.00;99.90;;;;;;5079576;28;20564;-71
2021/01/28 03:03:32;;;;;;;17.13;7.25;;;5.00;99.90;;;;;;5081721;28;20496;-71
2021/01/28 03:05:58;;;;;;;13.90;6.97;;;5.00;99.90;;;;;;5082112;28;20076;-71
2021/01/28 03:08:26;;;;;;;9.77;5.40;;;5.00;99.90;;;;;;5085241;28;20062;-70
2021/01/28 03:10:53;;;;;;;10.20;5.38;;;4.90;99.90;;;;;;5085458;28;20050;-70
2021/01/28 03:13:19;;;;;;;9.43;5.00;;;4.90;99.90;;;;;;5085835;28;20481;-70
2021/01/28 03:15:45;;;;;;;8.48;4.20;;;4.90;99.90;;;;;;5078271;28;20044;-70
2021/01/28 03:18:12;;;;;;;8.73;3.65;;;4.90;99.90;;;;;;5084227;28;20489;-70
2021/01/28 03:20:38;;;;;;;13.88;6.15;;;4.90;99.90;;;;;;5084246;28;20335;-70
2021/01/28 03:23:05;;;;;;;9.88;6.00;;;4.90;99.90;;;;;;5083745;28;20513;-70
2021/01/28 03:25:30;;;;;;;13.25;6.00;;;4.90;99.90;;;;;;5078394;28;20049;-71
2021/01/28 03:27:58;;;;;;;18.33;6.68;;;4.90;99.90;;;;;;5085872;28;20101;-71
2021/01/28 03:30:31;;;;;;;9.68;5.82;;;4.80;99.90;;;;;;5084817;28;20122;-71
2021/01/28 03:32:57;;;;;;;6.25;5.25;;;4.80;99.90;;;;;;5083967;28;20093;-70
2021/01/28 03:35:24;;;;;;;15.43;5.28;;;4.80;99.90;;;;;;5085833;28;20503;-71
2021/01/28 03:37:50;;;;;;;10.07;4.85;;;4.80;99.90;;;;;;5084674;28;20036;-71
2021/01/28 03:40:17;;;;;;;12.07;4.85;;;4.80;99.90;;;;;;5082211;28;20133;-71
2021/01/28 03:42:43;;;;;;;9.40;4.07;;;4.70;99.90;;;;;;5084401;28;20224;-71
2021/01/28 03:45:09;;;;;;;10.77;5.35;;;4.80;99.90;;;;;;5078551;28;20478;-71
2021/01/28 03:47:35;;;;;;;13.50;5.72;;;4.80;99.90;;;;;;5080714;28;20055;-69
2021/01/28 03:50:01;;;;;;;9.30;5.32;;;4.80;99.90;;;;;;5084907;28;20044;-71
2021/01/28 03:52:26;;;;;;;10.50;4.45;;;4.80;99.90;;;;;;5082779;28;20432;-71
2021/01/28 03:54:52;;;;;;;7.13;4.22;;;4.80;99.90;;;;;;5082798;28;20123;-69
2021/01/28 03:57:18;;;;;;;7.28;4.40;;;4.80;99.90;;;;;;5083505;28;20071;-70
2021/01/28 03:59:44;;;;;;;10.10;5.60;;;4.80;99.90;;;;;;5083245;28;20055;-70
2021/01/28 04:02:10;;;;;;;13.48;6.38;;;4.80;99.90;;;;;;5084022;28;20040;-71
2021/01/28 04:04:35;;;;;;;10.68;5.68;;;4.70;99.90;;;;;;5065734;28;20049;-71
2021/01/28 04:07:01;;;;;;;10.68;5.80;;;4.70;99.90;;;;;;5077500;28;20298;-71
2021/01/28 04:09:26;;;;;;;7.40;5.18;;;4.80;99.90;;;;;;5084493;28;20072;-70
2021/01/28 04:11:52;;;;;;;8.70;5.10;;;4.80;99.90;;;;;;5079636;28;20037;-69
2021/01/28 04:14:18;;;;;;;11.05;4.47;;;4.80;99.90;;;;;;5077324;28;20051;-71
2021/01/28 04:16:44;;;;;;;8.00;4.15;;;4.90;99.90;;;;;;5083820;28;20365;-71
2021/01/28 04:19:14;;;;;;;14.13;8.68;;;4.90;99.90;;;;;;5083529;28;20501;-71
2021/01/28 04:21:40;;;;;;;18.77;9.55;;;4.80;99.90;;;;;;5082517;28;20063;-71
2021/01/28 04:24:06;;;;;;;15.60;9.00;;;4.80;99.90;;;;;;5072870;28;20036;-71
2021/01/28 04:26:32;;;;;;;20.60;11.07;;;4.70;99.90;;;;;;5076213;28;20141;-71
2021/01/28 04:28:57;;;;;;;22.45;12.25;;;4.70;99.90;;;;;;5083269;28;20407;-71
2021/01/28 04:31:29;;;;;;;23.17;11.93;;;4.70;99.90;;;;;;5082520;28;20048;-70
2021/01/28 04:33:55;;;;;;;24.08;12.65;;;4.60;99.90;;;;;;5075216;28;20367;-70
2021/01/28 04:36:21;;;;;;;29.50;12.30;;;4.60;99.90;;;;;;5077666;28;20040;-70
2021/01/28 04:38:47;;;;;;;37.97;11.57;;;4.50;99.90;;;;;;5082464;28;20412;-70
2021/01/28 04:41:28;;;;;;;36.55;12.38;;;4.50;99.90;;;;;;5083644;28;20047;-70
2021/01/28 04:43:56;;;;;;;69.25;10.00;;;4.50;99.90;;;;;;5079714;28;20121;-70
2021/01/28 04:46:28;;;;;;;60.10;9.38;;;4.50;99.90;;;;;;5083374;28;20048;-71
2021/01/28 04:48:55;;;;;;;30.33;8.50;;;4.50;99.90;;;;;;5083445;28;20044;-70
2021/01/28 04:51:23;;;;;;;63.08;11.27;;;4.50;99.90;;;;;;5082187;28;20241;-69
2021/01/28 04:53:53;;;;;;;65.20;9.60;;;4.50;99.90;;;;;;5073200;28;20512;-69
2021/01/28 04:56:24;;;;;;;25.23;9.25;;;4.50;99.90;;;;;;5078455;28;20040;-70
2021/01/28 04:59:20;;;;;;;16.25;8.32;;;4.60;99.90;;;;;;5083041;28;20048;-71
2021/01/28 05:01:46;;;;;;;15.25;9.63;;;4.60;99.90;;;;;;5061991;28;20052;-71
2021/01/28 05:04:16;;;;;;;15.68;7.95;;;4.60;99.90;;;;;;5083213;28;20044;-70
2021/01/28 05:06:42;;;;;;;12.45;9.02;;;4.60;99.90;;;;;;5082687;28;20477;-71
2021/01/28 05:09:08;;;;;;;13.50;8.35;;;4.50;99.90;;;;;;5084188;28;20051;-71
2021/01/28 05:11:36;;;;;;;10.75;8.10;;;4.60;99.90;;;;;;5082455;28;20113;-71
2021/01/28 05:14:14;;;;;;;10.95;8.68;;;4.50;99.90;;;;;;5083043;28;20040;-71
2021/01/28 05:16:47;;;;;;;11.40;8.38;;;4.50;99.90;;;;;;5083499;28;20086;-70
2021/01/28 05:19:43;;;;;;;10.60;7.10;;;4.50;99.90;;;;;;5062408;28;20695;-71
2021/01/28 05:22:29;;;;;;;14.43;7.95;;;4.50;99.90;;;;;;5082337;28;20051;-71
2021/01/28 05:25:10;;;;;;;8.88;6.55;;;4.50;99.90;;;;;;5083067;28;20052;-71
2021/01/28 05:27:37;;;;;;;7.35;6.57;;;4.50;99.90;;;;;;5077351;28;20047;-71
2021/01/28 05:30:08;;;;;;;10.05;6.47;;;4.50;99.90;;;;;;5082019;28;20066;-71
2021/01/28 05:32:46;;;;;;;8.05;6.35;;;4.50;99.90;;;;;;5082583;28;20459;-71
2021/01/28 05:35:32;;;;;;;10.48;6.10;;;4.50;99.90;;;;;;5082433;28;20044;-70
2021/01/28 05:38:09;;;;;;;6.90;5.32;;;4.60;99.90;;;;;;5080751;28;20047;-70
2021/01/28 05:40:36;;;;;;;13.30;5.95;;;4.70;99.90;;;;;;5081390;28;20052;-70
2021/01/28 05:43:02;;;;;;;5.32;4.63;;;4.70;99.90;;;;;;5068761;28;20049;-70
2021/01/28 05:45:30;;;;;;;10.90;5.57;;;4.60;99.90;;;;;;5074693;28;20066;-70
2021/01/28 05:48:20;;;;;;;6.18;4.63;;;4.70;99.90;;;;;;5082168;28;20040;-71
2021/01/28 05:50:45;;;;;;;5.70;5.10;;;4.70;99.90;;;;;;5081836;28;20274;-71
2021/01/28 05:53:14;;;;;;;9.40;5.78;;;4.60;99.90;;;;;;5078831;28;20048;-70
2021/01/28 05:55:42;;;;;;;13.52;7.78;;;4.50;99.90;;;;;;5082449;28;20048;-69
2021/01/28 05:58:15;;;;;;;6.07;5.40;;;4.40;99.90;;;;;;5070376;28;20092;-69
2021/01/28 06:00:56;;;;;;;6.53;4.95;;;4.40;99.90;;;;;;5078455;28;20601;-70
2021/01/28 06:03:41;;;;;;;5.82;4.40;;;4.40;99.90;;;;;;5082852;28;20050;-71
2021/01/28 06:06:29;;;;;;;6.40;4.90;;;4.30;99.90;;;;;;5082018;28;20067;-70
2021/01/28 06:09:32;;;;;;;6.43;4.70;;;4.40;99.90;;;;;;5082776;28;20040;-69
2021/01/28 06:12:13;;;;;;;8.88;5.60;;;4.30;99.90;;;;;;5078357;28;20079;-71
2021/01/28 06:15:16;;;;;;;8.27;6.25;;;4.20;99.90;;;;;;5081546;28;20396;-69
2021/01/28 06:17:51;;;;;;;13.45;7.05;;;4.20;99.90;;;;;;5082204;28;20040;-70
2021/01/28 06:20:41;;;;;;;7.68;5.70;;;4.20;99.90;;;;;;5081903;28;20116;-71
2021/01/28 06:23:41;;;;;;;14.20;6.72;;;4.20;99.90;;;;;;5079977;28;20048;-71
2021/01/28 06:26:40;;;;;;;11.18;7.22;;;4.30;99.90;;;;;;5082299;28;20393;-71
2021/01/28 06:29:28;;;;;;;12.48;9.02;;;4.20;99.90;;;;;;5083094;28;20051;-72
2021/01/28 06:32:20;;;;;;;11.90;8.48;;;4.10;99.90;;;;;;5082375;28;20539;-71
2021/01/28 06:35:03;;;;;;;14.27;9.45;;;4.20;99.90;;;;;;5081642;28;20055;-71
2021/01/28 06:37:43;;;;;;;13.95;9.00;;;4.20;99.90;;;;;;5080620;28;20040;-71
2021/01/28 06:40:19;;;;;;;18.73;8.77;;;4.10;99.90;;;;;;5082150;28;20043;-70
2021/01/28 06:43:07;;;;;;;13.63;8.90;;;4.20;99.90;;;;;;5085331;28;20408;-69
2021/01/28 06:45:36;;;;;;;11.32;8.32;;;4.20;99.90;;;;;;5081937;28;20056;-71
2021/01/28 06:48:23;;;;;;;11.90;8.05;;;4.10;99.90;;;;;;5082160;28;20048;-70
2021/01/28 06:51:26;;;;;;;10.55;8.10;;;4.10;99.90;;;;;;5083330;28;20113;-72
2021/01/28 06:54:05;;;;;;;14.50;9.23;;;4.10;99.90;;;;;;5085405;28;20224;-69
2021/01/28 06:57:10;;;;;;;10.68;7.60;;;4.10;99.90;;;;;;5084675;28;20463;-69
2021/01/28 06:59:49;;;;;;;22.15;13.68;;;4.10;99.90;;;;;;5085320;28;20135;-71
2021/01/28 07:02:30;;;;;;;15.07;8.50;;;4.20;99.90;;;;;;5084586;28;20047;-71
2021/01/28 07:05:33;;;;;;;13.85;9.35;;;4.30;99.90;;;;;;5085383;28;20054;-70
2021/01/28 07:08:22;;;;;;;9.77;6.82;;;4.30;99.90;;;;;;5082977;28;20044;-70
2021/01/28 07:10:47;;;;;;;12.43;7.68;;;4.30;99.90;;;;;;5077770;28;20459;-71
2021/01/28 07:13:20;;;;;;;11.27;7.38;;;4.20;99.90;;;;;;5077711;28;20037;-71
2021/01/28 07:16:07;;;;;;;20.17;7.82;;;4.20;99.90;;;;;;5084719;28;20593;-72
2021/01/28 07:18:38;;;;;;;13.63;6.95;;;4.20;99.90;;;;;;5081435;28;20055;-71
2021/01/28 07:21:28;;;;;;;11.00;7.00;;;4.20;99.90;;;;;;5081253;28;20036;-71
2021/01/28 07:24:23;;;;;;;11.40;6.15;;;4.20;99.90;;;;;;5074479;28;20545;-71
2021/01/28 07:27:12;;;;;;;9.52;6.05;;;4.30;99.90;;;;;;5082484;28;20348;-71
2021/01/28 07:29:43;;;;;;;8.43;5.95;;;4.30;99.90;;;;;;5080673;28;20119;-71
2021/01/28 07:32:11;;;;;;;9.77;6.38;;;4.40;99.90;;;;;;5082637;28;20044;-69
2021/01/28 07:34:37;;;;;;;10.00;6.55;;;4.40;99.90;;;;;;5084415;28;20078;-71
2021/01/28 07:37:18;;;;;;;11.40;7.38;;;4.40;99.90;;;;;;5083813;28;20052;-70
2021/01/28 07:39:44;;;;;;;8.27;6.93;;;4.40;99.90;;;;;;5083779;28;20183;-71
2021/01/28 07:42:26;;;;;;;9.05;8.05;;;4.40;99.90;;;;;;5083563;28;20040;-71
2021/01/28 07:44:54;;;;;;;8.30;6.72;;;4.30;99.90;;;;;;5085072;28;20523;-70
2021/01/28 07:47:32;;;;;;;11.35;7.93;;;4.40;99.90;;;;;;5082118;28;20064;-70
2021/01/28 07:50:22;;;;;;;14.93;8.57;;;4.30;99.90;;;;;;5081308;28;20135;-70
2021/01/28 07:52:48;;;;;;;18.75;11.98;;;4.30;99.90;;;;;;5080061;28;20239;-70
2021/01/28 07:55:42;;;;;;;14.18;7.72;;;4.40;99.90;;;;;;5083041;28;20051;-70
2021/01/28 07:58:31;;;;;;;11.27;8.60;;;4.30;99.90;;;;;;5082631;28;20712;-71
2021/01/28 08:01:12;;;;;;;18.30;8.50;;;4.20;99.90;;;;;;5083642;28;20455;-72
2021/01/28 08:04:02;;;;;;;12.98;8.68;;;4.20;99.90;;;;;;5083160;28;20528;-71
2021/01/28 08:06:32;;;;;;;10.40;8.23;;;4.20;99.90;;;;;;5081930;28;20668;-71
2021/01/28 08:09:08;;;;;;;13.70;8.82;;;4.20;99.90;;;;;;5081579;28;20055;-70
2021/01/28 08:11:34;;;;;;;14.88;8.80;;;4.30;99.90;;;;;;5084136;28;20116;-70
2021/01/28 08:14:04;;;;;;;11.05;8.40;;;4.30;99.90;;;;;;5082156;28;20040;-70
2021/01/28 08:16:32;;;;;;;12.50;9.05;;;4.30;99.90;;;;;;5083165;28;20177;-72
2021/01/28 08:19:00;;;;;;;17.95;9.23;;;4.30;99.90;;;;;;5082447;28;20512;-72
2021/01/28 08:21:27;;;;;;;13.88;8.63;;;4.30;99.90;;;;;;5082389;28;20531;-70
2021/01/28 08:23:54;;;;;;;11.48;9.13;;;4.30;99.90;;;;;;5085596;28;20068;-72
2021/01/28 08:26:22;;;;;;;10.73;7.80;;;4.20;99.90;;;;;;5073189;28;20359;-70
2021/01/28 08:28:48;;;;;;;18.95;10.00;;;4.30;99.90;;;;;;5082400;28;20463;-70
2021/01/28 08:31:28;;;;;;;12.40;9.23;;;4.30;99.90;;;;;;5083041;28;20135;-71
2021/01/28 08:34:00;;;;;;;12.98;9.27;;;4.30;99.90;;;;;;5081174;28;20400;-71
2021/01/28 08:36:33;;;;;;;12.75;8.13;;;4.30;99.90;;;;;;5077977;28;20055;-71
2021/01/28 08:39:13;;;;;;;10.52;8.05;;;4.30;99.90;;;;;;5078850;28;20044;-71
2021/01/28 08:41:41;;;;;;;12.02;8.38;;;4.40;99.90;;;;;;5082307;28;20075;-71
2021/01/28 08:44:12;;;;;;;13.20;8.88;;;4.40;99.90;;;;;;5082125;28;20048;-71
2021/01/28 08:46:39;;;;;;;13.20;8.32;;;4.40;99.90;;;;;;5078861;28;20501;-70
2021/01/28 08:49:16;;;;;;;15.55;8.93;;;4.40;99.90;;;;;;5075836;28;20097;-72
2021/01/28 08:51:47;;;;;;;10.75;7.60;;;4.40;99.90;;;;;;5079466;28;20182;-71
2021/01/28 08:54:25;;;;;;;12.00;8.52;;;4.40;99.90;;;;;;5079049;28;20139;-71
2021/01/28 08:56:55;;;;;;;13.75;8.27;;;4.40;99.90;;;;;;5067691;28;20058;-71
2021/01/28 08:59:24;;;;;;;12.00;8.02;;;4.30;99.90;;;;;;5082310;28;20048;-71
2021/01/28 09:01:52;;;;;;;12.65;7.68;;;4.30;99.90;;;;;;5078082;28;20040;-71
2021/01/28 09:04:28;;;;;;;13.57;8.35;;;4.40;99.90;;;;;;5077897;28;20063;-70
2021/01/28 09:06:54;;;;;;;10.68;7.85;;;4.30;99.90;;;;;;5077947;28;20097;-72
2021/01/28 09:09:26;;;;;;;12.15;8.18;;;4.40;99.90;;;;;;5078549;28;20435;-72
2021/01/28 09:12:12;;;;;;;11.80;7.60;;;4.40;99.90;;;;;;5079835;28;20095;-71
2021/01/28 09:14:40;;;;;;;13.88;7.72;;;4.40;99.90;;;;;;5077203;28;20414;-72
2021/01/28 09:17:30;;;;;;;11.63;7.47;;;4.40;99.90;;;;;;5078609;28;20118;-72
2021/01/28 09:19:59;;;;;;;12.55;7.88;;;4.40;99.90;;;;;;5077461;28;20138;-71
2021/01/28 09:22:33;;;;;;;13.30;8.18;;;4.40;99.90;;;;;;5076260;28;20247;-72
2021/01/28 09:25:02;;;;;;;14.43;9.00;;;4.40;99.90;;;;;;5078740;28;20083;-70
2021/01/28 09:27:32;;;;;;;12.40;8.25;;;4.40;99.90;;;;;;5080294;28;20186;-70
2021/01/28 09:30:16;;;;;;;20.10;10.30;;;4.40;99.90;;;;;;5081639;28;20047;-72
2021/01/28 09:32:42;;;;;;;13.27;8.00;;;4.40;99.90;;;;;;5081867;28;20405;-70
2021/01/28 09:35:14;;;;;;;11.57;8.30;;;4.50;99.90;;;;;;5081009;28;20185;-71
2021/01/28 09:37:42;;;;;;;15.02;8.55;;;4.40;99.90;;;;;;5107951;27;20047;-70
2021/01/28 09:40:29;;;;;;;13.02;8.80;;;4.40;99.90;;;;;;5078443;28;20048;-71
2021/01/28 09:43:18;;;;;;;16.73;7.93;;;4.40;99.90;;;;;;5078959;28;20056;-70
2021/01/28 09:46:03;;;;;;;18.40;9.30;;;4.40;99.90;;;;;;5078464;28;20048;-72
2021/01/28 09:48:29;;;;;;;14.82;8.75;;;4.50;99.90;;;;;;5075742;28;20044;-71
2021/01/28 09:50:55;;;;;;;14.05;8.70;;;4.40;99.90;;;;;;5079573;28;20077;-72
2021/01/28 09:53:21;;;;;;;16.58;10.00;;;4.40;99.90;;;;;;5081442;28;20400;-72
2021/01/28 09:55:48;;;;;;;15.23;9.48;;;4.40;99.90;;;;;;5080022;28;20078;-71
2021/01/28 09:58:13;;;;;;;20.02;8.80;;;4.40;99.90;;;;;;5079248;28;20116;-71
2021/01/28 10:00:39;;;;;;;13.93;10.02;;;4.50;99.90;;;;;;5080570;28;20924;-71
2021/01/28 10:03:07;;;;;;;10.52;8.32;;;4.40;99.90;;;;;;5081551;28;20048;-70
2021/01/28 10:05:34;;;;;;;27.92;13.80;;;4.50;99.90;;;;;;5081563;28;20117;-71
2021/01/28 10:08:01;;;;;;;13.77;9.05;;;4.50;99.90;;;;;;5071316;28;20072;-70
2021/01/28 10:10:29;;;;;;;21.40;10.82;;;4.40;99.90;;;;;;5077690;28;20335;-72
2021/01/28 10:12:58;;;;;;;14.23;7.85;;;4.50;99.90;;;;;;5080317;28;20078;-72
2021/01/28 10:15:24;;;;;;;25.27;11.25;;;4.50;99.90;;;;;;5081606;28;21060;-72
2021/01/28 10:17:50;;;;;;;15.88;7.90;;;4.50;99.90;;;;;;5079223;28;20036;-71
2021/01/28 10:20:16;;;;;;;22.17;12.43;;;4.60;99.90;;;;;;5083593;28;20127;-69
2021/01/28 10:22:43;;;;;;;33.05;16.05;;;4.50;99.90;;;;;;5082279;28;20062;-72
2021/01/28 10:25:11;;;;;;;19.75;9.32;;;4.50;99.90;;;;;;5085054;28;20086;-71
2021/01/28 10:27:37;;;;;;;20.65;8.55;;;4.40;99.90;;;;;;5085714;28;20036;-70
2021/01/28 10:30:05;;;;;;;12.32;8.93;;;4.40;99.90;;;;;;5086036;28;20176;-71
2021/01/28 10:32:31;;;;;;;15.40;7.55;;;4.40;99.90;;;;;;5085617;28;20052;-70
2021/01/28 10:34:57;;;;;;;14.63;8.30;;;4.40;99.90;;;;;;5084526;28;20101;-70
2021/01/28 10:37:22;;;;;;;14.23;8.07;;;4.50;99.90;;;;;;5083742;28;20516;-70
2021/01/28 10:39:48;;;;;;;10.07;7.18;;;4.40;99.90;;;;;;5085132;28;20044;-72
2021/01/28 10:42:17;;;;;;;12.07;7.22;;;4.50;99.90;;;;;;5083822;28;20271;-72
2021/01/28 10:44:43;;;;;;;14.52;7.82;;;4.40;99.90;;;;;;5082097;28;20035;-71
2021/01/28 10:47:09;;;;;;;13.20;7.97;;;4.40;99.90;;;;;;5083732;28;20496;-72
2021/01/28 10:49:34;;;;;;;13.68;7.40;;;4.40;99.90;;;;;;5085074;28;20071;-71
2021/01/28 10:52:00;;;;;;;17.58;7.57;;;4.50;99.90;;;;;;5084415;28;20101;-71
2021/01/28 10:54:26;;;;;;;16.58;8.82;;;4.50;99.90;;;;;;5083287;28;20534;-71
2021/01/28 10:56:53;;;;;;;24.02;9.05;;;4.40;99.90;;;;;;5066238;28;20592;-71
2021/01/28 10:59:21;;;;;;;15.25;9.23;;;4.40;99.90;;;;;;5069745;28;20036;-70
2021/01/28 11:01:47;;;;;;;15.90;10.27;;;4.40;99.90;;;;;;5083291;28;20447;-71
2021/01/28 11:04:13;;;;;;;17.10;10.20;;;4.40;99.90;;;;;;5083626;28;20044;-71
2021/01/28 11:06:39;;;;;;;15.70;9.30;;;4.40;99.90;;;;;;5084235;28;20043;-71
2021/01/28 11:09:04;;;;;;;17.02;10.13;;;4.50;99.90;;;;;;5083912;28;20048;-71
2021/01/28 11:11:30;;;;;;;16.60;9.85;;;4.40;99.90;;;;;;5083345;28;20351;-71
2021/01/28 11:13:56;;;;;;;23.23;9.10;;;4.40;99.90;;;;;;5084226;28;20472;-70
2021/01/28 11:16:29;;;;;;;16.45;9.40;;;4.30;99.90;;;;;;5083541;28;20048;-71
2021/01/28 11:18:57;;;;;;;13.70;7.20;;;4.40;99.90;;;;;;5084435;28;20142;-71
2021/01/28 11:21:22;;;;;;;14.73;6.57;;;4.30;99.90;;;;;;5083663;28;20093;-71
2021/01/28 11:23:49;;;;;;;11.85;6.72;;;4.20;99.90;;;;;;5084731;28;20143;-71
2021/01/28 11:26:15;;;;;;;10.73;5.32;;;4.10;99.90;;;;;;5082964;28;20138;-70
2021/01/28 11:28:42;;;;;;;9.98;4.55;;;4.00;99.90;;;;;;5083036;28;20133;-71
2021/01/28 11:31:07;;;;;;;8.07;4.57;;;4.10;99.90;;;;;;5084627;28;20036;-71
2021/01/28 11:33:34;;;;;;;9.95;4.13;;;3.90;99.90;;;;;;5082863;28;20606;-71
2021/01/28 11:36:00;;;;;;;9.60;4.35;;;3.90;99.90;;;;;;5082157;28;20166;-70
2021/01/28 11:38:26;;;;;;;7.22;4.30;;;3.80;99.90;;;;;;5082565;28;20051;-69
2021/01/28 11:40:52;;;;;;;8.30;3.95;;;3.60;99.90;;;;;;5085363;28;20125;-69
2021/01/28 11:43:18;;;;;;;8.45;3.63;;;3.70;99.90;;;;;;5082452;28;20524;-71
2021/01/28 11:45:44;;;;;;;6.20;3.47;;;3.60;99.90;;;;;;5079753;28;20575;-71
2021/01/28 11:48:10;;;;;;;6.78;3.85;;;3.70;99.90;;;;;;5082797;28;20044;-71
2021/01/28 11:50:36;;;;;;;6.30;3.35;;;3.70;99.90;;;;;;5082225;28;20075;-71
2021/01/28 11:53:02;;;;;;;3.33;2.80;;;3.60;99.90;;;;;;5083833;28;20505;-71
2021/01/28 11:55:28;;;;;;;8.02;3.10;;;3.50;99.90;;;;;;5084188;28;20048;-70
2021/01/28 11:57:55;;;;;;;7.88;2.85;;;3.50;99.90;;;;;;5083358;28;20056;-70
2021/01/28 12:00:22;;;;;;;5.50;3.28;;;3.30;99.90;;;;;;5083906;28;20098;-70
2021/01/28 12:02:49;;;;;;;5.28;3.22;;;3.20;99.90;;;;;;5082742;28;20087;-71
2021/01/28 12:05:17;;;;;;;5.18;2.80;;;3.20;99.90;;;;;;5083795;28;20055;-71
2021/01/28 12:07:43;;;;;;;6.28;3.17;;;3.30;99.90;;;;;;5082698;28;20093;-69
2021/01/28 12:10:11;;;;;;;3.08;2.65;;;3.10;99.90;;;;;;5083691;28;20052;-69
2021/01/28 12:12:38;;;;;;;4.07;2.50;;;2.90;99.90;;;;;;5079205;28;20436;-71
2021/01/28 12:15:06;;;;;;;4.50;2.63;;;3.10;99.90;;;;;;5082342;28;20048;-72
2021/01/28 12:17:31;;;;;;;4.20;2.22;;;3.00;99.90;;;;;;5081378;28;20079;-72
2021/01/28 12:19:57;;;;;;;7.53;2.65;;;2.90;99.90;;;;;;5082997;28;20576;-71
2021/01/28 12:22:23;;;;;;;7.03;3.25;;;2.80;99.90;;;;;;5082683;28;20712;-71
2021/01/28 12:24:49;;;;;;;4.43;2.60;;;2.90;99.90;;;;;;5083325;28;20044;-71
2021/01/28 12:27:15;;;;;;;4.63;2.90;;;2.90;99.90;;;;;;5079366;28;20046;-71
2021/01/28 12:29:41;;;;;;;5.25;2.80;;;3.10;99.90;;;;;;5078928;28;20032;-70
2021/01/28 12:32:08;;;;;;;4.35;2.50;;;2.90;99.90;;;;;;5079337;28;20048;-71
2021/01/28 12:34:35;;;;;;;9.73;3.20;;;3.00;99.90;;;;;;5078852;28;20279;-71
2021/01/28 12:37:00;;;;;;;8.52;3.10;;;2.90;99.90;;;;;;5079116;28;20059;-69
2021/01/28 12:39:26;;;;;;;6.05;4.00;;;2.80;99.90;;;;;;5080984;28;20048;-71
2021/01/28 12:41:52;;;;;;;50.05;14.82;;;2.90;99.90;;;;;;5082303;28;20040;-70
2021/01/28 12:44:17;;;;;;;7.05;3.97;;;3.00;99.90;;;;;;5082893;28;20044;-71
2021/01/28 12:46:43;;;;;;;8.52;3.22;;;3.10;99.90;;;;;;5084243;28;20785;-71
2021/01/28 12:49:09;;;;;;;5.45;3.85;;;3.20;99.90;;;;;;5082698;28;20365;-71
2021/01/28 12:51:34;;;;;;;7.45;4.20;;;3.30;99.90;;;;;;5081604;28;20040;-70
2021/01/28 12:54:00;;;;;;;16.00;6.53;;;3.60;99.90;;;;;;5081971;28;20119;-70
2021/01/28 12:56:26;;;;;;;14.55;6.13;;;3.80;99.90;;;;;;5080649;28;20048;-70
2021/01/28 12:58:51;;;;;;;12.05;5.60;;;4.00;99.90;;;;;;5081651;28;20282;-70
2021/01/28 13:01:19;;;;;;;12.35;5.43;;;4.00;99.90;;;;;;5081218;28;20186;-70
2021/01/28 13:03:45;;;;;;;6.53;3.58;;;3.80;99.90;;;;;;5083527;28;20048;-71
2021/01/28 13:06:10;;;;;;;4.97;2.92;;;3.80;99.90;;;;;;5081363;28;20379;-71